createdAt,value
2018-09-23T00:02:02.426Z,71.64
2018-09-23T00:04:36.523Z,71.45
2018-09-23T00:07:08.393Z,72.27
2018-09-23T00:09:44.513Z,72.64
2018-09-23T00:12:23.811Z,72.78
2018-09-23T00:14:57.215Z,72.57
2018-09-23T00:17:29.788Z,72.65
2018-09-23T00:20:01.206Z,73.00
2018-09-23T00:22:34.737Z,72.96
2018-09-23T00:25:17.172Z,73.16
2018-09-23T00:27:49.349Z,73.19
2018-09-23T00:30:23.856Z,73.54
2018-09-23T00:32:55.567Z,72.82
2018-09-23T00:35:27.463Z,72.56
2018-09-23T00:37:59.461Z,72.70
2018-09-23T00:40:30.739Z,73.60
2018-09-23T00:43:02.430Z,73.64
2018-09-23T00:45:33.591Z,73.77
2018-09-23T00:48:05.841Z,73.65
2018-09-23T00:50:36.347Z,73.73
2018-09-23T00:53:07.295Z,73.49
2018-09-23T00:55:38.652Z,73.75
2018-09-23T00:58:10.318Z,72.71
2018-09-23T01:00:41.991Z,72.43
2018-09-23T01:03:14.387Z,72.41
2018-09-23T01:05:46.712Z,72.04
2018-09-23T01:08:18.308Z,72.21
2018-09-23T01:10:48.973Z,72.97
2018-09-23T01:13:19.438Z,72.79
2018-09-23T01:15:53.082Z,73.18
2018-09-23T01:18:31.180Z,72.93
2018-09-23T01:21:00.569Z,72.77
2018-09-23T01:23:31.593Z,72.91
2018-09-23T01:26:00.946Z,72.89
2018-09-23T01:28:30.207Z,73.65
2018-09-23T01:30:59.622Z,73.27
2018-09-23T01:33:28.992Z,72.70
2018-09-23T01:35:58.582Z,72.57
2018-09-23T01:38:28.246Z,72.89
2018-09-23T01:40:58.706Z,72.60
2018-09-23T01:43:30.423Z,72.46
2018-09-23T01:46:00.526Z,72.56
2018-09-23T01:48:30.972Z,73.01
2018-09-23T01:51:00.398Z,72.62
2018-09-23T01:53:30.415Z,72.67
2018-09-23T01:56:00.942Z,72.81
2018-09-23T01:58:30.643Z,72.45
2018-09-23T02:01:00.074Z,72.81
2018-09-23T02:03:29.672Z,72.87
2018-09-23T02:06:01.053Z,72.96
2018-09-23T02:08:30.725Z,73.41
2018-09-23T02:11:00.432Z,72.68
2018-09-23T02:13:30.959Z,72.46
2018-09-23T02:16:00.476Z,71.93
2018-09-23T02:18:30.099Z,72.04
2018-09-23T02:20:59.743Z,72.50
2018-09-23T02:23:29.368Z,72.17
2018-09-23T02:25:58.890Z,71.47
2018-09-23T02:28:29.031Z,72.52
2018-09-23T02:30:58.642Z,71.94
2018-09-23T02:33:28.515Z,72.10
2018-09-23T02:35:58.307Z,71.42
2018-09-23T02:38:27.679Z,72.64
2018-09-23T02:40:57.040Z,72.73
2018-09-23T02:43:27.126Z,72.57
2018-09-23T02:45:56.572Z,72.81
2018-09-23T02:48:26.008Z,73.00
2018-09-23T02:50:55.816Z,71.92
2018-09-23T02:53:25.492Z,71.75
2018-09-23T02:55:54.759Z,71.65
2018-09-23T02:58:24.370Z,71.69
2018-09-23T03:00:53.880Z,71.73
2018-09-23T03:03:23.623Z,72.40
2018-09-23T03:05:53.472Z,72.10
2018-09-23T03:08:22.777Z,72.57
2018-09-23T03:10:52.109Z,72.41
2018-09-23T03:13:22.013Z,72.18
2018-09-23T03:15:51.673Z,72.34
2018-09-23T03:18:21.338Z,72.59
2018-09-23T03:20:51.234Z,72.63
2018-09-23T03:23:20.939Z,72.29
2018-09-23T03:25:50.177Z,72.06
2018-09-23T03:28:20.040Z,71.61
2018-09-23T03:30:49.671Z,71.97
2018-09-23T03:33:18.955Z,72.18
2018-09-23T03:35:48.631Z,71.35
2018-09-23T03:38:18.047Z,71.41
2018-09-23T03:40:47.483Z,71.29
2018-09-23T03:43:17.433Z,72.06
2018-09-23T03:45:47.059Z,71.51
2018-09-23T03:48:18.686Z,71.35
2018-09-23T03:50:48.613Z,71.80
2018-09-23T03:53:17.860Z,71.71
2018-09-23T03:55:47.181Z,72.24
2018-09-23T03:58:16.807Z,72.12
2018-09-23T04:00:47.251Z,72.14
2018-09-23T04:03:16.587Z,71.88
2018-09-23T04:05:47.330Z,72.12
2018-09-23T04:08:18.314Z,71.34
2018-09-23T04:10:47.769Z,72.07
2018-09-23T04:13:17.367Z,71.62
2018-09-23T04:15:48.171Z,71.53
2018-09-23T04:18:21.256Z,72.11
2018-09-23T04:20:51.038Z,71.48
2018-09-23T04:23:20.964Z,72.10
2018-09-23T04:25:54.479Z,71.64
2018-09-23T04:28:24.607Z,72.06
2018-09-23T04:30:54.680Z,71.92
2018-09-23T04:33:24.675Z,71.69
2018-09-23T04:35:55.200Z,71.79
2018-09-23T04:38:24.596Z,72.06
2018-09-23T04:40:54.663Z,71.29
2018-09-23T04:43:24.305Z,71.81
2018-09-23T04:45:53.981Z,71.83
2018-09-23T04:48:23.886Z,71.39
2018-09-23T04:50:53.429Z,71.69
2018-09-23T04:53:24.306Z,71.67
2018-09-23T04:56:01.291Z,71.32
2018-09-23T04:58:31.053Z,71.14
2018-09-23T05:01:01.499Z,71.27
2018-09-23T05:03:31.016Z,70.80
2018-09-23T05:06:02.267Z,70.81
2018-09-23T05:08:33.854Z,71.68
2018-09-23T05:11:04.820Z,71.23
2018-09-23T05:13:41.749Z,71.55
2018-09-23T05:16:19.739Z,72.06
2018-09-23T05:18:49.437Z,71.03
2018-09-23T05:21:29.156Z,71.39
2018-09-23T05:23:59.109Z,70.76
2018-09-23T05:26:30.209Z,71.43
2018-09-23T05:28:59.997Z,70.84
2018-09-23T05:31:29.511Z,70.92
2018-09-23T05:34:00.754Z,71.03
2018-09-23T05:36:30.538Z,71.27
2018-09-23T05:39:01.076Z,71.61
2018-09-23T05:41:31.945Z,71.53
2018-09-23T05:44:01.641Z,71.33
2018-09-23T05:46:31.305Z,71.33
2018-09-23T05:49:00.879Z,71.67
2018-09-23T05:51:31.593Z,72.35
2018-09-23T05:54:01.879Z,72.94
2018-09-23T05:56:31.500Z,73.07
2018-09-23T05:59:01.142Z,72.46
2018-09-23T06:01:32.245Z,72.18
2018-09-23T06:04:01.890Z,71.61
2018-09-23T06:06:32.453Z,72.50
2018-09-23T06:09:02.232Z,72.40
2018-09-23T06:11:32.017Z,72.53
2018-09-23T06:14:01.578Z,71.64
2018-09-23T06:16:31.710Z,71.32
2018-09-23T06:19:01.420Z,71.22
2018-09-23T06:21:30.829Z,71.64
2018-09-23T06:24:00.683Z,70.43
2018-09-23T06:26:30.045Z,71.96
2018-09-23T06:28:59.527Z,72.35
2018-09-23T06:31:31.160Z,72.06
2018-09-23T06:34:00.769Z,72.08
2018-09-23T06:36:30.010Z,70.84
2018-09-23T06:39:01.975Z,71.03
2018-09-23T06:41:31.426Z,71.74
2018-09-23T06:44:01.428Z,72.06
2018-09-23T06:46:31.168Z,72.08
2018-09-23T06:49:00.380Z,73.03
2018-09-23T06:51:30.106Z,72.11
2018-09-23T06:53:59.786Z,72.72
2018-09-23T06:56:30.220Z,72.67
2018-09-23T06:58:59.998Z,72.79
2018-09-23T07:01:29.775Z,71.95
2018-09-23T07:04:00.731Z,71.95
2018-09-23T07:06:30.520Z,72.96
2018-09-23T07:09:00.429Z,72.35
2018-09-23T07:11:30.340Z,73.40
2018-09-23T07:13:59.738Z,72.62
2018-09-23T07:16:30.165Z,72.61
2018-09-23T07:18:59.983Z,72.19
2018-09-23T07:21:31.061Z,72.90
2018-09-23T07:24:00.441Z,72.52
2018-09-23T07:26:30.628Z,72.36
2018-09-23T07:29:01.823Z,71.63
2018-09-23T07:31:32.346Z,71.02
2018-09-23T07:34:18.569Z,71.43
2018-09-23T07:36:48.653Z,71.27
2018-09-23T07:39:21.299Z,71.35
2018-09-23T07:41:50.747Z,71.02
2018-09-23T07:44:20.270Z,71.04
2018-09-23T07:46:50.105Z,70.41
2018-09-23T07:49:20.323Z,69.75
2018-09-23T07:51:51.310Z,69.78
2018-09-23T07:54:22.305Z,69.85
2018-09-23T07:56:53.428Z,69.75
2018-09-23T07:59:23.227Z,68.94
2018-09-23T08:02:07.509Z,69.30
2018-09-23T08:04:37.334Z,69.80
2018-09-23T08:07:07.926Z,69.12
2018-09-23T08:09:38.807Z,69.14
2018-09-23T08:12:11.309Z,68.94
2018-09-23T08:14:41.488Z,68.72
2018-09-23T08:17:12.069Z,69.07
2018-09-23T08:19:57.305Z,69.50
2018-09-23T08:22:31.542Z,68.41
2018-09-23T08:25:04.377Z,68.81
2018-09-23T08:27:37.944Z,68.10
2018-09-23T08:30:07.717Z,68.20
2018-09-23T08:32:40.975Z,67.95
2018-09-23T08:35:11.212Z,67.44
2018-09-23T08:37:40.822Z,67.35
2018-09-23T08:40:11.819Z,66.33
2018-09-23T08:42:41.576Z,66.89
2018-09-23T08:45:16.495Z,67.41
2018-09-23T08:47:48.541Z,67.91
2018-09-23T08:50:18.060Z,68.11
2018-09-23T08:52:47.498Z,67.98
2018-09-23T08:55:17.192Z,68.78
2018-09-23T08:57:57.527Z,68.85
2018-09-23T09:00:31.378Z,68.83
2018-09-23T09:03:02.036Z,69.37
2018-09-23T09:05:32.209Z,69.43
2018-09-23T09:08:04.606Z,69.76
2018-09-23T09:10:38.314Z,69.61
2018-09-23T09:13:09.051Z,69.69
2018-09-23T09:15:42.587Z,69.18
2018-09-23T09:18:14.882Z,70.01
2018-09-23T09:20:45.580Z,69.78
2018-09-23T09:23:18.303Z,70.85
2018-09-23T09:25:48.692Z,70.18
2018-09-23T09:28:19.253Z,70.82
2018-09-23T09:30:59.202Z,70.42
2018-09-23T09:33:35.024Z,70.91
2018-09-23T09:36:06.879Z,71.39
2018-09-23T09:38:38.619Z,71.78
2018-09-23T09:41:22.159Z,71.07
2018-09-23T09:43:53.583Z,70.46
2018-09-23T09:46:33.371Z,70.26
2018-09-23T09:49:05.277Z,71.54
2018-09-23T09:51:37.464Z,70.68
2018-09-23T09:54:09.555Z,70.72
2018-09-23T09:56:44.603Z,70.69
2018-09-23T09:59:15.023Z,70.16
2018-09-23T10:01:44.655Z,71.01
2018-09-23T10:04:14.377Z,70.81
2018-09-23T10:06:46.425Z,70.78
2018-09-23T10:09:17.491Z,70.67
2018-09-23T10:11:54.700Z,70.83
2018-09-23T10:17:22.996Z,70.72
2018-09-23T10:19:52.250Z,71.00
2018-09-23T10:22:23.182Z,71.87
2018-09-23T10:24:53.462Z,71.22
2018-09-23T10:27:26.892Z,70.49
2018-09-23T10:29:59.963Z,70.20
2018-09-23T10:32:39.606Z,70.42
2018-09-23T10:35:09.704Z,71.68
2018-09-23T10:37:40.178Z,71.77
2018-09-23T10:40:10.127Z,71.60
2018-09-23T10:42:41.035Z,72.16
2018-09-23T10:45:14.232Z,72.39
2018-09-23T10:47:43.727Z,72.80
2018-09-23T10:50:13.157Z,73.33
2018-09-23T10:52:43.652Z,73.73
2018-09-23T10:55:13.600Z,74.09
2018-09-23T10:57:43.699Z,74.05
2018-09-23T11:00:35.865Z,73.69
2018-09-23T11:05:55.287Z,73.94
2018-09-23T11:08:35.535Z,74.74
2018-09-23T11:11:10.873Z,74.33
2018-09-23T11:13:44.511Z,73.63
2018-09-23T11:16:18.429Z,73.95
2018-09-23T11:18:54.234Z,73.59
2018-09-23T11:21:26.746Z,72.84
2018-09-23T11:23:57.711Z,72.55
2018-09-23T11:26:29.852Z,73.52
2018-09-23T11:29:05.832Z,72.61
2018-09-23T11:31:37.399Z,73.57
2018-09-23T11:34:07.756Z,73.58
2018-09-23T11:36:39.423Z,73.30
2018-09-23T11:39:13.516Z,72.42
2018-09-23T11:41:43.793Z,72.96
2018-09-23T11:44:13.817Z,73.46
2018-09-23T11:46:47.258Z,73.50
2018-09-23T11:49:17.108Z,73.32
2018-09-23T11:51:46.403Z,73.42
2018-09-23T11:54:15.595Z,72.80
2018-09-23T11:56:48.866Z,73.33
2018-09-23T11:59:19.316Z,73.53
2018-09-23T12:01:50.919Z,72.75
2018-09-23T12:04:20.961Z,73.03
2018-09-23T12:06:51.080Z,72.71
2018-09-23T12:09:31.654Z,74.32
2018-09-23T12:12:03.393Z,74.16
2018-09-23T12:14:34.647Z,74.16
2018-09-23T12:17:08.141Z,73.77
2018-09-23T12:19:38.890Z,74.37
2018-09-23T12:22:09.787Z,74.08
2018-09-23T12:24:39.592Z,74.06
2018-09-23T12:27:11.482Z,73.86
2018-09-23T12:29:43.652Z,74.27
2018-09-23T12:32:15.207Z,74.28
2018-09-23T12:34:46.130Z,74.95
2018-09-23T12:37:17.049Z,74.37
2018-09-23T12:42:14.720Z,74.88
2018-09-23T12:44:44.086Z,75.14
2018-09-23T12:47:14.649Z,75.34
2018-09-23T12:49:44.824Z,74.35
2018-09-23T12:52:14.210Z,73.62
2018-09-23T12:54:44.140Z,73.77
2018-09-23T12:57:16.902Z,73.65
2018-09-23T12:59:48.773Z,74.53
2018-09-23T13:02:19.376Z,74.44
2018-09-23T13:04:50.768Z,74.49
2018-09-23T13:07:23.177Z,73.92
2018-09-23T13:09:54.464Z,73.53
2018-09-23T13:18:40.274Z,73.53
2018-09-23T13:21:17.742Z,73.27
2018-09-23T13:23:50.952Z,73.53
2018-09-23T13:26:25.677Z,72.87
2018-09-23T13:29:03.333Z,73.71
2018-09-23T13:31:39.539Z,73.18
2018-09-23T13:34:09.993Z,73.00
2018-09-23T13:36:45.947Z,72.58
2018-09-23T13:39:16.301Z,72.63
2018-09-23T13:41:45.768Z,73.47
2018-09-23T13:44:16.911Z,73.12
2018-09-23T13:46:52.192Z,72.76
2018-09-23T13:49:22.799Z,72.10
2018-09-23T13:51:56.933Z,71.12
2018-09-23T13:57:04.734Z,72.09
2018-09-23T13:59:36.395Z,71.35
2018-09-23T14:02:10.238Z,71.14
2018-09-23T14:04:41.075Z,70.97
2018-09-23T14:07:10.494Z,72.02
2018-09-23T14:09:43.686Z,71.82
2018-09-23T14:12:15.589Z,72.35
2018-09-23T14:14:46.247Z,72.66
2018-09-23T14:17:19.433Z,72.14
2018-09-23T14:19:50.802Z,73.11
2018-09-23T14:22:25.012Z,72.53
2018-09-23T14:24:54.695Z,72.40
2018-09-23T14:27:24.025Z,72.31
2018-09-23T14:29:54.318Z,72.20
2018-09-23T14:32:33.044Z,72.94
2018-09-23T14:35:02.481Z,73.55
2018-09-23T14:37:34.280Z,72.80
2018-09-23T14:40:06.411Z,72.19
2018-09-23T14:42:36.336Z,72.92
2018-09-23T14:45:17.904Z,73.24
2018-09-23T14:47:48.493Z,72.39
2018-09-23T14:50:18.395Z,72.68
2018-09-23T14:52:49.751Z,73.44
2018-09-23T14:55:19.500Z,72.27
2018-09-23T14:57:50.002Z,71.98
2018-09-23T15:00:20.192Z,72.27
2018-09-23T15:02:53.697Z,73.05
2018-09-23T15:05:27.221Z,72.54
2018-09-23T15:08:03.541Z,72.60
2018-09-23T15:10:35.098Z,72.35
2018-09-23T15:13:18.448Z,73.06
2018-09-23T15:15:49.614Z,72.94
2018-09-23T15:18:21.944Z,72.55
2018-09-23T15:20:52.828Z,71.98
2018-09-23T15:23:22.631Z,72.32
2018-09-23T15:25:53.162Z,70.84
2018-09-23T15:28:22.628Z,71.19
2018-09-23T15:30:52.500Z,71.51
2018-09-23T15:33:24.057Z,71.15
2018-09-23T15:35:54.306Z,71.03
2018-09-23T15:38:29.256Z,71.31
2018-09-23T15:40:59.359Z,71.30
2018-09-23T15:43:33.862Z,71.60
2018-09-23T15:46:07.615Z,71.34
2018-09-23T15:48:42.147Z,71.55
